SAS1477 ENGM-EKCH
Flight info
| Callsign | SAS1477 |
|---|---|
| Flight time | 0h 51m |
| Altitude | 31000 |
| Route | OKSAT L996 GETPA/N0445F390 L996 KELIN DCT TOPLA L996 ERNOV |
| Aircraft | A20N/M-SDE2E3FGHIRWXY/LB1 |
Departure
| Time | 2026-04-30 17:42 |
|---|---|
| Airport | Oslo-Gardermoen International Airport (ENGM) |
Arrival
| Time | 2026-04-30 18:34 |
|---|---|
| Airport | Copenhagen Kastrup Airport (EKCH) |
| Time | Latitude | Longitude | Altitude | Speed | Heading |
|---|---|---|---|---|---|
| 2026-04-30 17:39 | 60.20161 | 11.11716 | 686 ft | 11 kts | 39° |
| 2026-04-30 17:41 | 60.20073 | 11.12225 | 687 ft | 0 kts | 197° |
| 2026-04-30 17:42 | 60.19986 | 11.12171 | 686 ft | 44 kts | 196° |
| 2026-04-30 17:42 | 60.17483 | 11.10760 | 1605 ft | 156 kts | 197° |
| 2026-04-30 17:43 | 60.15416 | 11.09592 | 2972 ft | 166 kts | 199° |
| 2026-04-30 17:44 | 60.11777 | 11.11313 | 4346 ft | 232 kts | 135° |
| 2026-04-30 17:44 | 60.08137 | 11.19258 | 6096 ft | 286 kts | 134° |
| 2026-04-30 17:46 | 60.02384 | 11.35873 | 10773 ft | 304 kts | 96° |
| 2026-04-30 17:47 | 60.06910 | 11.50682 | 12802 ft | 360 kts | 42° |
| 2026-04-30 17:48 | 60.07803 | 11.70839 | 15294 ft | 406 kts | 108° |
| 2026-04-30 17:48 | 60.05062 | 11.87047 | 17330 ft | 420 kts | 108° |
| 2026-04-30 17:49 | 59.97327 | 12.02870 | 19845 ft | 429 kts | 174° |
| 2026-04-30 17:50 | 59.85314 | 12.01568 | 22088 ft | 445 kts | 186° |
| 2026-04-30 17:51 | 59.75949 | 12.00494 | 23680 ft | 457 kts | 185° |
| 2026-04-30 17:52 | 59.66384 | 11.99421 | 25291 ft | 463 kts | 185° |
| 2026-04-30 17:53 | 59.50483 | 11.97644 | 28343 ft | 458 kts | 185° |
| 2026-04-30 17:54 | 59.37835 | 11.96248 | 30382 ft | 460 kts | 184° |
| 2026-04-30 17:55 | 59.24982 | 11.94845 | 31298 ft | 466 kts | 184° |
| 2026-04-30 17:56 | 59.12077 | 11.93456 | 31307 ft | 467 kts | 184° |
| 2026-04-30 17:57 | 59.02231 | 11.92400 | 31619 ft | 483 kts | 184° |
| 2026-04-30 17:58 | 58.92103 | 11.91310 | 32340 ft | 490 kts | 184° |
| 2026-04-30 17:59 | 58.78635 | 11.90922 | 33804 ft | 484 kts | 175° |
| 2026-04-30 18:00 | 58.65431 | 11.94393 | 34943 ft | 481 kts | 172° |
| 2026-04-30 18:00 | 58.55562 | 11.97060 | 35671 ft | 478 kts | 172° |
| 2026-04-30 18:01 | 58.49019 | 11.98818 | 36151 ft | 475 kts | 172° |
| 2026-04-30 18:02 | 58.39261 | 12.01434 | 37140 ft | 472 kts | 172° |
| 2026-04-30 18:02 | 58.29621 | 12.04009 | 37793 ft | 469 kts | 172° |
| 2026-04-30 18:03 | 58.19979 | 12.06563 | 38326 ft | 467 kts | 172° |
| 2026-04-30 18:04 | 58.10397 | 12.09085 | 38800 ft | 466 kts | 172° |
| 2026-04-30 18:05 | 57.97598 | 12.12439 | 39355 ft | 465 kts | 172° |
| 2026-04-30 18:06 | 57.84828 | 12.15761 | 39372 ft | 465 kts | 172° |
| 2026-04-30 18:08 | 57.62421 | 12.21536 | 38913 ft | 464 kts | 172° |
| 2026-04-30 18:09 | 57.49812 | 12.24755 | 37364 ft | 459 kts | 172° |
| 2026-04-30 18:10 | 57.37190 | 12.27953 | 34306 ft | 465 kts | 172° |
| 2026-04-30 18:11 | 57.24297 | 12.31202 | 30852 ft | 476 kts | 171° |
| 2026-04-30 18:11 | 57.14441 | 12.33670 | 28231 ft | 483 kts | 171° |
| 2026-04-30 18:12 | 57.04561 | 12.36123 | 26049 ft | 476 kts | 171° |
| 2026-04-30 18:13 | 56.98100 | 12.37723 | 24851 ft | 466 kts | 171° |
| 2026-04-30 18:13 | 56.89690 | 12.39798 | 23354 ft | 454 kts | 171° |
| 2026-04-30 18:14 | 56.82467 | 12.41572 | 22073 ft | 443 kts | 171° |
| 2026-04-30 18:15 | 56.73463 | 12.43780 | 20427 ft | 431 kts | 171° |
| 2026-04-30 18:15 | 56.64689 | 12.45919 | 18786 ft | 421 kts | 171° |
| 2026-04-30 18:16 | 56.58921 | 12.47319 | 17677 ft | 415 kts | 170° |
| 2026-04-30 18:16 | 56.53299 | 12.48679 | 16622 ft | 408 kts | 170° |
| 2026-04-30 18:17 | 56.50505 | 12.49355 | 16086 ft | 405 kts | 169° |
| 2026-04-30 18:17 | 56.47708 | 12.50031 | 15543 ft | 402 kts | 169° |
| 2026-04-30 18:17 | 56.42245 | 12.51331 | 14506 ft | 396 kts | 172° |
| 2026-04-30 18:18 | 56.39486 | 12.51199 | 14247 ft | 401 kts | 186° |
| 2026-04-30 18:18 | 56.36746 | 12.50310 | 13996 ft | 402 kts | 189° |
| 2026-04-30 18:18 | 56.34037 | 12.49306 | 13746 ft | 401 kts | 189° |
| 2026-04-30 18:18 | 56.31284 | 12.48322 | 13493 ft | 400 kts | 189° |
| 2026-04-30 18:19 | 56.28593 | 12.47416 | 13259 ft | 398 kts | 188° |
| 2026-04-30 18:19 | 56.25873 | 12.46543 | 13015 ft | 396 kts | 188° |
| 2026-04-30 18:19 | 56.23161 | 12.45701 | 12763 ft | 395 kts | 188° |
| 2026-04-30 18:19 | 56.20453 | 12.44877 | 12521 ft | 393 kts | 187° |
| 2026-04-30 18:20 | 56.17788 | 12.44075 | 12281 ft | 391 kts | 187° |
| 2026-04-30 18:20 | 56.15133 | 12.43280 | 12028 ft | 390 kts | 187° |
| 2026-04-30 18:20 | 56.12443 | 12.42479 | 11732 ft | 388 kts | 187° |
| 2026-04-30 18:20 | 56.09826 | 12.41701 | 11464 ft | 376 kts | 187° |
| 2026-04-30 18:21 | 56.07309 | 12.40953 | 11298 ft | 361 kts | 187° |
| 2026-04-30 18:21 | 56.04904 | 12.40240 | 11149 ft | 348 kts | 187° |
| 2026-04-30 18:21 | 56.02547 | 12.39542 | 10972 ft | 335 kts | 187° |
| 2026-04-30 18:21 | 56.00286 | 12.38875 | 10803 ft | 324 kts | 187° |
| 2026-04-30 18:22 | 55.98108 | 12.38232 | 10648 ft | 312 kts | 187° |
| 2026-04-30 18:22 | 55.93987 | 12.37021 | 10345 ft | 294 kts | 187° |
| 2026-04-30 18:22 | 55.91980 | 12.36433 | 10021 ft | 293 kts | 187° |
| 2026-04-30 18:23 | 55.90008 | 12.35856 | 9711 ft | 291 kts | 187° |
| 2026-04-30 18:23 | 55.87974 | 12.35262 | 9391 ft | 289 kts | 187° |
| 2026-04-30 18:23 | 55.86015 | 12.34690 | 9087 ft | 287 kts | 187° |
| 2026-04-30 18:23 | 55.84038 | 12.34112 | 8785 ft | 285 kts | 187° |
| 2026-04-30 18:24 | 55.80176 | 12.32985 | 8191 ft | 281 kts | 187° |
| 2026-04-30 18:24 | 55.78253 | 12.32423 | 7892 ft | 279 kts | 187° |
| 2026-04-30 18:24 | 55.76350 | 12.31869 | 7597 ft | 277 kts | 187° |
| 2026-04-30 18:25 | 55.74471 | 12.31321 | 7311 ft | 275 kts | 187° |
| 2026-04-30 18:25 | 55.70647 | 12.30214 | 6585 ft | 287 kts | 187° |
| 2026-04-30 18:25 | 55.68660 | 12.29639 | 6159 ft | 288 kts | 187° |
| 2026-04-30 18:26 | 55.64739 | 12.28506 | 5344 ft | 286 kts | 188° |
| 2026-04-30 18:26 | 55.62773 | 12.27938 | 4943 ft | 285 kts | 188° |
| 2026-04-30 18:26 | 55.60841 | 12.27380 | 4540 ft | 284 kts | 188° |
| 2026-04-30 18:27 | 55.56990 | 12.27681 | 3733 ft | 279 kts | 155° |
| 2026-04-30 18:27 | 55.55274 | 12.29097 | 3328 ft | 270 kts | 151° |
| 2026-04-30 18:28 | 55.52139 | 12.31996 | 2987 ft | 239 kts | 150° |
| 2026-04-30 18:28 | 55.50724 | 12.33320 | 3001 ft | 224 kts | 150° |
| 2026-04-30 18:28 | 55.47963 | 12.35895 | 3000 ft | 225 kts | 149° |
| 2026-04-30 18:29 | 55.46740 | 12.37547 | 2980 ft | 219 kts | 121° |
| 2026-04-30 18:29 | 55.47577 | 12.43525 | 2930 ft | 179 kts | 27° |
| 2026-04-30 18:30 | 55.49686 | 12.45877 | 2459 ft | 180 kts | 32° |
| 2026-04-30 18:30 | 55.51607 | 12.48558 | 2076 ft | 166 kts | 36° |
| 2026-04-30 18:31 | 55.52455 | 12.49863 | 1815 ft | 155 kts | 36° |
| 2026-04-30 18:31 | 55.53949 | 12.52192 | 1382 ft | 134 kts | 36° |
| 2026-04-30 18:32 | 55.55339 | 12.54343 | 1038 ft | 132 kts | 36° |
| 2026-04-30 18:32 | 55.56034 | 12.55409 | 855 ft | 132 kts | 36° |
| 2026-04-30 18:32 | 55.57410 | 12.57534 | 500 ft | 131 kts | 38° |
| 2026-04-30 18:33 | 55.58094 | 12.58591 | 354 ft | 131 kts | 37° |
| 2026-04-30 18:33 | 55.59452 | 12.60713 | 25 ft | 127 kts | 38° |
| 2026-04-30 18:33 | 55.60028 | 12.61604 | 19 ft | 86 kts | 40° |
| 2026-04-30 18:34 | 55.60392 | 12.62159 | 22 ft | 61 kts | 40° |
| 2026-04-30 18:34 | 55.60684 | 12.62371 | 21 ft | 0 kts | 12° |
| 2026-04-30 18:34 | 55.60685 | 12.62371 | 21 ft | 0 kts | 12° |
| 2026-04-30 18:35 | 55.60693 | 12.62374 | 21 ft | 3 kts | 11° |
| 2026-04-30 18:35 | 55.60754 | 12.62397 | 22 ft | 15 kts | 15° |
| 2026-04-30 18:35 | 55.60854 | 12.62502 | 23 ft | 17 kts | 39° |
| 2026-04-30 18:36 | 55.61035 | 12.62778 | 23 ft | 18 kts | 42° |
| 2026-04-30 18:36 | 55.61154 | 12.62965 | 23 ft | 24 kts | 41° |
| 2026-04-30 18:36 | 55.61401 | 12.63348 | 24 ft | 22 kts | 39° |
| 2026-04-30 18:37 | 55.61519 | 12.63528 | 24 ft | 22 kts | 41° |
| 2026-04-30 18:37 | 55.61634 | 12.63706 | 24 ft | 21 kts | 41° |
| 2026-04-30 18:37 | 55.61748 | 12.63879 | 23 ft | 21 kts | 40° |
| 2026-04-30 18:37 | 55.61862 | 12.64052 | 22 ft | 21 kts | 36° |
| 2026-04-30 18:38 | 55.61997 | 12.64172 | 22 ft | 21 kts | 24° |
| 2026-04-30 18:38 | 55.62103 | 12.64260 | 22 ft | 10 kts | 25° |
| 2026-04-30 18:38 | 55.62119 | 12.64275 | 22 ft | 0 kts | 26° |
| 2026-04-30 18:38 | 55.62127 | 12.64281 | 22 ft | 0 kts | 26° |
| 2026-04-30 18:39 | 55.62131 | 12.64286 | 22 ft | 2 kts | 26° |
| 2026-04-30 18:39 | 55.62167 | 12.64316 | 21 ft | 9 kts | 24° |
| 2026-04-30 18:40 | 55.62247 | 12.64374 | 21 ft | 14 kts | 19° |
| 2026-04-30 18:40 | 55.62347 | 12.64427 | 21 ft | 15 kts | 13° |
| 2026-04-30 18:40 | 55.62452 | 12.64479 | 20 ft | 13 kts | 14° |
| 2026-04-30 18:40 | 55.62511 | 12.64436 | 20 ft | 10 kts | 298° |
| 2026-04-30 18:41 | 55.62552 | 12.64326 | 20 ft | 9 kts | 303° |
| 2026-04-30 18:41 | 55.62594 | 12.64256 | 20 ft | 9 kts | 355° |
| 2026-04-30 18:41 | 55.62655 | 12.64307 | 19 ft | 10 kts | 24° |
| 2026-04-30 18:41 | 55.62719 | 12.64365 | 19 ft | 8 kts | 65° |
| 2026-04-30 18:42 | 55.62713 | 12.64439 | 19 ft | 3 kts | 102° |
| 2026-04-30 18:42 | 55.62711 | 12.64453 | 19 ft | 0 kts | 102° |